sensor_id;sensor_type;location;lat;lon;timestamp;pressure;altitude;pressure_sealevel;temperature;humidity
62592;BME280;48659;41.622;2.276;2023-03-25T00:02:14;100215.42;;;8.98;65.79
62592;BME280;48659;41.622;2.276;2023-03-25T00:04:50;100221.26;;;8.28;68.42
62592;BME280;48659;41.622;2.276;2023-03-25T00:07:18;100218.47;;;9.50;66.10
62592;BME280;48659;41.622;2.276;2023-03-25T00:09:45;100218.27;;;9.60;65.47
62592;BME280;48659;41.622;2.276;2023-03-25T00:12:13;100222.92;;;9.63;63.97
62592;BME280;48659;41.622;2.276;2023-03-25T00:14:41;100231.00;;;9.68;64.54
62592;BME280;48659;41.622;2.276;2023-03-25T00:17:08;100229.84;;;9.95;63.49
62592;BME280;48659;41.622;2.276;2023-03-25T00:19:36;100229.05;;;9.67;64.51
62592;BME280;48659;41.622;2.276;2023-03-25T00:22:03;100233.70;;;9.92;64.67
62592;BME280;48659;41.622;2.276;2023-03-25T00:24:30;100239.30;;;10.26;63.23
62592;BME280;48659;41.622;2.276;2023-03-25T00:26:57;100233.34;;;10.86;60.53
62592;BME280;48659;41.622;2.276;2023-03-25T00:29:25;100230.06;;;11.55;58.17
62592;BME280;48659;41.622;2.276;2023-03-25T00:31:52;100224.76;;;11.97;57.58
62592;BME280;48659;41.622;2.276;2023-03-25T00:34:23;100226.74;;;10.48;61.28
62592;BME280;48659;41.622;2.276;2023-03-25T00:36:50;100227.59;;;10.80;60.03
62592;BME280;48659;41.622;2.276;2023-03-25T00:39:23;100222.45;;;11.96;57.34
62592;BME280;48659;41.622;2.276;2023-03-25T00:41:52;100222.87;;;10.60;59.72
62592;BME280;48659;41.622;2.276;2023-03-25T00:44:19;100222.70;;;11.23;60.44
62592;BME280;48659;41.622;2.276;2023-03-25T00:46:46;100223.11;;;11.20;59.72
62592;BME280;48659;41.622;2.276;2023-03-25T00:49:14;100220.76;;;10.48;60.14
62592;BME280;48659;41.622;2.276;2023-03-25T00:51:42;100215.70;;;11.66;57.53
62592;BME280;48659;41.622;2.276;2023-03-25T00:54:09;100222.42;;;11.62;57.92
62592;BME280;48659;41.622;2.276;2023-03-25T00:56:36;100226.36;;;10.90;59.63
62592;BME280;48659;41.622;2.276;2023-03-25T00:59:15;100233.36;;;10.68;61.25
62592;BME280;48659;41.622;2.276;2023-03-25T01:01:43;100240.78;;;9.12;65.15
62592;BME280;48659;41.622;2.276;2023-03-25T01:04:11;100241.65;;;8.83;67.71
62592;BME280;48659;41.622;2.276;2023-03-25T01:06:39;100244.53;;;8.36;67.41
62592;BME280;48659;41.622;2.276;2023-03-25T01:09:09;100233.89;;;8.92;66.47
62592;BME280;48659;41.622;2.276;2023-03-25T01:11:36;100226.03;;;10.19;64.68
62592;BME280;48659;41.622;2.276;2023-03-25T01:14:06;100221.51;;;10.79;61.70
62592;BME280;48659;41.622;2.276;2023-03-25T01:16:34;100222.92;;;11.06;59.39
62592;BME280;48659;41.622;2.276;2023-03-25T01:19:02;100228.12;;;8.86;64.63
62592;BME280;48659;41.622;2.276;2023-03-25T01:21:30;100224.66;;;10.76;61.45
62592;BME280;48659;41.622;2.276;2023-03-25T01:23:58;100226.49;;;11.47;58.05
62592;BME280;48659;41.622;2.276;2023-03-25T01:26:25;100226.67;;;12.02;56.28
62592;BME280;48659;41.622;2.276;2023-03-25T01:28:52;100229.04;;;9.42;62.35
62592;BME280;48659;41.622;2.276;2023-03-25T01:31:19;100229.55;;;9.17;64.33
62592;BME280;48659;41.622;2.276;2023-03-25T01:33:47;100240.94;;;10.12;63.29
62592;BME280;48659;41.622;2.276;2023-03-25T01:36:15;100259.41;;;9.96;63.74
62592;BME280;48659;41.622;2.276;2023-03-25T01:38:42;100266.17;;;10.02;63.38
62592;BME280;48659;41.622;2.276;2023-03-25T01:41:10;100264.80;;;10.36;62.79
62592;BME280;48659;41.622;2.276;2023-03-25T01:43:38;100258.56;;;11.12;59.92
62592;BME280;48659;41.622;2.276;2023-03-25T01:46:06;100258.23;;;10.05;61.46
62592;BME280;48659;41.622;2.276;2023-03-25T01:48:36;100248.61;;;11.16;59.92
62592;BME280;48659;41.622;2.276;2023-03-25T01:51:09;100246.63;;;10.67;60.69
62592;BME280;48659;41.622;2.276;2023-03-25T01:53:39;100241.44;;;11.51;57.66
62592;BME280;48659;41.622;2.276;2023-03-25T01:56:08;100238.45;;;12.12;55.99
62592;BME280;48659;41.622;2.276;2023-03-25T01:58:37;100233.31;;;12.40;56.09
62592;BME280;48659;41.622;2.276;2023-03-25T02:01:06;100229.10;;;11.64;56.51
62592;BME280;48659;41.622;2.276;2023-03-25T02:03:34;100229.87;;;11.38;57.74
62592;BME280;48659;41.622;2.276;2023-03-25T02:06:04;100233.42;;;11.99;56.04
62592;BME280;48659;41.622;2.276;2023-03-25T02:08:37;100236.49;;;12.45;54.99
62592;BME280;48659;41.622;2.276;2023-03-25T02:11:06;100242.94;;;12.43;55.37
62592;BME280;48659;41.622;2.276;2023-03-25T02:13:36;100248.62;;;12.75;54.43
62592;BME280;48659;41.622;2.276;2023-03-25T02:16:25;100242.26;;;12.91;53.51
62592;BME280;48659;41.622;2.276;2023-03-25T02:19:04;100231.76;;;13.31;53.77
62592;BME280;48659;41.622;2.276;2023-03-25T02:22:38;100226.19;;;12.80;54.32
62592;BME280;48659;41.622;2.276;2023-03-25T02:25:31;100216.77;;;12.87;53.73
62592;BME280;48659;41.622;2.276;2023-03-25T02:28:08;100215.68;;;12.71;54.38
62592;BME280;48659;41.622;2.276;2023-03-25T02:31:01;100222.76;;;12.73;53.94
62592;BME280;48659;41.622;2.276;2023-03-25T02:33:48;100219.20;;;13.13;52.41
62592;BME280;48659;41.622;2.276;2023-03-25T02:38:43;100220.64;;;13.20;53.26
62592;BME280;48659;41.622;2.276;2023-03-25T02:41:26;100218.24;;;12.92;52.27
62592;BME280;48659;41.622;2.276;2023-03-25T02:44:01;100232.28;;;12.69;53.06
62592;BME280;48659;41.622;2.276;2023-03-25T02:46:31;100225.16;;;12.51;53.54
62592;BME280;48659;41.622;2.276;2023-03-25T02:49:03;100221.12;;;12.90;52.89
62592;BME280;48659;41.622;2.276;2023-03-25T02:51:34;100228.80;;;12.18;53.34
62592;BME280;48659;41.622;2.276;2023-03-25T02:54:07;100229.02;;;12.43;54.07
62592;BME280;48659;41.622;2.276;2023-03-25T02:56:36;100227.28;;;12.74;53.65
62592;BME280;48659;41.622;2.276;2023-03-25T02:59:17;100234.24;;;11.93;55.07
62592;BME280;48659;41.622;2.276;2023-03-25T03:01:46;100238.69;;;12.17;53.86
62592;BME280;48659;41.622;2.276;2023-03-25T03:04:13;100236.40;;;12.85;52.93
62592;BME280;48659;41.622;2.276;2023-03-25T03:06:42;100237.17;;;12.74;53.20
62592;BME280;48659;41.622;2.276;2023-03-25T03:09:27;100235.25;;;12.23;54.15
62592;BME280;48659;41.622;2.276;2023-03-25T03:12:09;100234.84;;;12.58;54.56
62592;BME280;48659;41.622;2.276;2023-03-25T03:14:55;100226.73;;;13.21;53.20
62592;BME280;48659;41.622;2.276;2023-03-25T03:17:27;100233.24;;;12.37;55.51
62592;BME280;48659;41.622;2.276;2023-03-25T03:19:59;100239.94;;;11.91;55.10
62592;BME280;48659;41.622;2.276;2023-03-25T03:22:38;100245.28;;;12.86;53.31
62592;BME280;48659;41.622;2.276;2023-03-25T03:25:16;100251.94;;;12.96;52.65
62592;BME280;48659;41.622;2.276;2023-03-25T03:27:50;100246.61;;;12.73;52.85
62592;BME280;48659;41.622;2.276;2023-03-25T03:30:27;100248.78;;;12.44;53.65
62592;BME280;48659;41.622;2.276;2023-03-25T03:33:01;100252.66;;;12.82;52.84
62592;BME280;48659;41.622;2.276;2023-03-25T03:35:33;100257.97;;;12.39;53.45
62592;BME280;48659;41.622;2.276;2023-03-25T03:38:07;100254.92;;;11.81;54.32
62592;BME280;48659;41.622;2.276;2023-03-25T03:40:38;100260.97;;;11.90;54.15
62592;BME280;48659;41.622;2.276;2023-03-25T03:43:10;100263.09;;;12.22;54.25
62592;BME280;48659;41.622;2.276;2023-03-25T03:45:44;100259.00;;;11.82;55.23
62592;BME280;48659;41.622;2.276;2023-03-25T03:48:16;100260.76;;;12.01;55.10
62592;BME280;48659;41.622;2.276;2023-03-25T03:50:48;100258.75;;;11.89;55.58
62592;BME280;48659;41.622;2.276;2023-03-25T03:53:24;100259.29;;;11.78;56.03
62592;BME280;48659;41.622;2.276;2023-03-25T03:55:57;100246.75;;;11.95;55.40
62592;BME280;48659;41.622;2.276;2023-03-25T03:58:29;100242.90;;;11.80;55.63
62592;BME280;48659;41.622;2.276;2023-03-25T04:01:02;100242.77;;;11.28;56.70
62592;BME280;48659;41.622;2.276;2023-03-25T04:03:35;100245.23;;;11.74;55.74
62592;BME280;48659;41.622;2.276;2023-03-25T04:06:10;100252.43;;;11.63;55.46
62592;BME280;48659;41.622;2.276;2023-03-25T04:08:48;100254.62;;;11.69;55.32
62592;BME280;48659;41.622;2.276;2023-03-25T04:11:22;100249.39;;;12.14;54.26
62592;BME280;48659;41.622;2.276;2023-03-25T04:13:55;100250.54;;;11.60;54.63
62592;BME280;48659;41.622;2.276;2023-03-25T04:16:24;100258.85;;;11.65;54.99
62592;BME280;48659;41.622;2.276;2023-03-25T04:18:52;100266.75;;;11.59;54.48
62592;BME280;48659;41.622;2.276;2023-03-25T04:21:20;100269.88;;;12.09;54.35
62592;BME280;48659;41.622;2.276;2023-03-25T04:23:48;100271.41;;;11.22;56.97
62592;BME280;48659;41.622;2.276;2023-03-25T04:26:16;100266.21;;;11.63;57.01
62592;BME280;48659;41.622;2.276;2023-03-25T04:28:43;100269.34;;;12.53;54.55
62592;BME280;48659;41.622;2.276;2023-03-25T04:31:13;100272.68;;;12.51;52.82
62592;BME280;48659;41.622;2.276;2023-03-25T04:33:42;100278.40;;;11.41;54.84
62592;BME280;48659;41.622;2.276;2023-03-25T04:36:10;100287.35;;;11.24;55.04
62592;BME280;48659;41.622;2.276;2023-03-25T04:38:37;100287.78;;;11.51;54.69
62592;BME280;48659;41.622;2.276;2023-03-25T04:41:05;100291.54;;;10.44;56.84
62592;BME280;48659;41.622;2.276;2023-03-25T04:43:33;100291.07;;;10.59;56.87
62592;BME280;48659;41.622;2.276;2023-03-25T04:46:01;100295.87;;;11.04;55.67
62592;BME280;48659;41.622;2.276;2023-03-25T04:48:29;100287.88;;;11.57;55.72
62592;BME280;48659;41.622;2.276;2023-03-25T04:50:58;100288.26;;;12.08;54.94
62592;BME280;48659;41.622;2.276;2023-03-25T04:53:26;100295.08;;;11.76;55.90
62592;BME280;48659;41.622;2.276;2023-03-25T04:55:53;100301.90;;;12.19;54.74
62592;BME280;48659;41.622;2.276;2023-03-25T04:58:21;100300.36;;;11.88;55.11
62592;BME280;48659;41.622;2.276;2023-03-25T05:00:51;100304.14;;;11.24;56.11
62592;BME280;48659;41.622;2.276;2023-03-25T05:03:19;100310.64;;;10.31;57.73
62592;BME280;48659;41.622;2.276;2023-03-25T05:05:46;100313.86;;;10.11;57.41
62592;BME280;48659;41.622;2.276;2023-03-25T05:08:13;100319.31;;;9.87;60.60
62592;BME280;48659;41.622;2.276;2023-03-25T05:10:41;100326.08;;;8.99;63.44
62592;BME280;48659;41.622;2.276;2023-03-25T05:13:09;100333.89;;;8.30;66.29
62592;BME280;48659;41.622;2.276;2023-03-25T05:15:37;100334.28;;;8.90;64.65
62592;BME280;48659;41.622;2.276;2023-03-25T05:18:05;100334.17;;;9.48;62.95
62592;BME280;48659;41.622;2.276;2023-03-25T05:20:33;100327.73;;;10.06;60.70
62592;BME280;48659;41.622;2.276;2023-03-25T05:23:00;100319.43;;;11.14;57.63
62592;BME280;48659;41.622;2.276;2023-03-25T05:25:29;100319.78;;;11.34;55.96
62592;BME280;48659;41.622;2.276;2023-03-25T05:27:56;100316.82;;;11.90;54.44
62592;BME280;48659;41.622;2.276;2023-03-25T05:30:23;100317.14;;;11.70;55.11
62592;BME280;48659;41.622;2.276;2023-03-25T05:32:51;100319.90;;;12.15;54.69
62592;BME280;48659;41.622;2.276;2023-03-25T05:35:23;100316.76;;;12.26;54.11
62592;BME280;48659;41.622;2.276;2023-03-25T05:37:51;100316.46;;;12.46;53.43
62592;BME280;48659;41.622;2.276;2023-03-25T05:40:18;100324.50;;;12.15;53.54
62592;BME280;48659;41.622;2.276;2023-03-25T05:42:45;100331.71;;;12.18;54.08
62592;BME280;48659;41.622;2.276;2023-03-25T05:45:13;100339.34;;;12.44;53.56
62592;BME280;48659;41.622;2.276;2023-03-25T05:47:41;100345.77;;;12.67;52.94
62592;BME280;48659;41.622;2.276;2023-03-25T05:50:09;100353.93;;;12.28;54.02
62592;BME280;48659;41.622;2.276;2023-03-25T05:52:37;100354.69;;;12.69;52.77
62592;BME280;48659;41.622;2.276;2023-03-25T05:55:05;100356.07;;;12.47;53.69
62592;BME280;48659;41.622;2.276;2023-03-25T05:57:32;100358.61;;;12.27;52.99
62592;BME280;48659;41.622;2.276;2023-03-25T06:00:00;100363.70;;;13.08;52.00
62592;BME280;48659;41.622;2.276;2023-03-25T06:02:28;100362.91;;;12.25;53.15
62592;BME280;48659;41.622;2.276;2023-03-25T06:04:55;100367.78;;;12.34;53.72
62592;BME280;48659;41.622;2.276;2023-03-25T06:07:22;100372.15;;;12.24;54.93
62592;BME280;48659;41.622;2.276;2023-03-25T06:09:49;100377.00;;;11.77;55.59
62592;BME280;48659;41.622;2.276;2023-03-25T06:12:18;100371.96;;;11.72;55.57
62592;BME280;48659;41.622;2.276;2023-03-25T06:14:45;100370.71;;;12.03;55.18
62592;BME280;48659;41.622;2.276;2023-03-25T06:17:14;100372.06;;;12.08;54.88
62592;BME280;48659;41.622;2.276;2023-03-25T06:19:42;100377.52;;;10.20;59.29
62592;BME280;48659;41.622;2.276;2023-03-25T06:22:10;100376.20;;;11.18;58.38
62592;BME280;48659;41.622;2.276;2023-03-25T06:24:39;100382.87;;;10.55;59.67
62592;BME280;48659;41.622;2.276;2023-03-25T06:27:11;100379.38;;;11.96;56.95
62592;BME280;48659;41.622;2.276;2023-03-25T06:29:39;100381.34;;;11.81;57.22
62592;BME280;48659;41.622;2.276;2023-03-25T06:32:07;100387.37;;;12.26;56.81
62592;BME280;48659;41.622;2.276;2023-03-25T06:34:34;100388.48;;;11.32;58.07
62592;BME280;48659;41.622;2.276;2023-03-25T06:37:02;100392.12;;;11.36;58.79
62592;BME280;48659;41.622;2.276;2023-03-25T06:39:30;100393.24;;;11.24;59.63
62592;BME280;48659;41.622;2.276;2023-03-25T06:41:57;100396.00;;;12.95;56.37
62592;BME280;48659;41.622;2.276;2023-03-25T06:44:24;100398.66;;;12.43;56.90
62592;BME280;48659;41.622;2.276;2023-03-25T06:46:51;100404.84;;;13.19;54.99
62592;BME280;48659;41.622;2.276;2023-03-25T06:49:18;100406.65;;;13.94;53.99
62592;BME280;48659;41.622;2.276;2023-03-25T06:51:46;100411.53;;;14.27;52.93
62592;BME280;48659;41.622;2.276;2023-03-25T06:54:13;100421.53;;;14.48;52.71
62592;BME280;48659;41.622;2.276;2023-03-25T06:56:40;100428.78;;;13.81;54.68
62592;BME280;48659;41.622;2.276;2023-03-25T06:59:08;100427.46;;;11.97;58.20
62592;BME280;48659;41.622;2.276;2023-03-25T07:01:35;100431.12;;;12.58;58.78
62592;BME280;48659;41.622;2.276;2023-03-25T07:04:02;100436.38;;;13.32;56.38
62592;BME280;48659;41.622;2.276;2023-03-25T07:06:30;100441.09;;;14.28;55.43
62592;BME280;48659;41.622;2.276;2023-03-25T07:08:58;100433.42;;;14.92;52.99
62592;BME280;48659;41.622;2.276;2023-03-25T07:11:27;100437.71;;;14.73;53.43
62592;BME280;48659;41.622;2.276;2023-03-25T07:13:55;100437.60;;;15.15;51.89
62592;BME280;48659;41.622;2.276;2023-03-25T07:16:22;100440.48;;;15.03;52.15
62592;BME280;48659;41.622;2.276;2023-03-25T07:18:50;100442.83;;;15.04;51.30
62592;BME280;48659;41.622;2.276;2023-03-25T07:21:18;100444.45;;;14.79;52.07
62592;BME280;48659;41.622;2.276;2023-03-25T07:23:45;100449.05;;;14.70;51.96
62592;BME280;48659;41.622;2.276;2023-03-25T07:26:13;100450.62;;;15.23;51.52
62592;BME280;48659;41.622;2.276;2023-03-25T07:28:41;100458.35;;;15.03;51.11
62592;BME280;48659;41.622;2.276;2023-03-25T07:31:09;100461.78;;;15.77;50.55
62592;BME280;48659;41.622;2.276;2023-03-25T07:33:37;100467.31;;;15.34;50.53
62592;BME280;48659;41.622;2.276;2023-03-25T07:36:06;100467.50;;;15.70;49.15
62592;BME280;48659;41.622;2.276;2023-03-25T07:38:34;100470.59;;;15.98;49.10
62592;BME280;48659;41.622;2.276;2023-03-25T07:41:04;100467.80;;;16.60;47.44
62592;BME280;48659;41.622;2.276;2023-03-25T07:43:32;100468.47;;;16.06;48.59
62592;BME280;48659;41.622;2.276;2023-03-25T07:46:00;100471.91;;;15.84;49.06
62592;BME280;48659;41.622;2.276;2023-03-25T07:48:28;100477.16;;;15.40;50.04
62592;BME280;48659;41.622;2.276;2023-03-25T07:50:56;100476.77;;;15.59;49.27
62592;BME280;48659;41.622;2.276;2023-03-25T07:53:24;100475.38;;;16.45;46.81
62592;BME280;48659;41.622;2.276;2023-03-25T07:55:51;100482.29;;;16.21;47.98
62592;BME280;48659;41.622;2.276;2023-03-25T07:58:19;100482.01;;;15.81;48.19
62592;BME280;48659;41.622;2.276;2023-03-25T08:00:46;100485.90;;;14.73;51.15
62592;BME280;48659;41.622;2.276;2023-03-25T08:03:14;100484.53;;;15.52;49.95
62592;BME280;48659;41.622;2.276;2023-03-25T08:05:44;100484.04;;;16.67;47.00
62592;BME280;48659;41.622;2.276;2023-03-25T08:08:11;100481.75;;;17.27;46.17
62592;BME280;48659;41.622;2.276;2023-03-25T08:10:41;100480.78;;;17.15;45.75
62592;BME280;48659;41.622;2.276;2023-03-25T08:13:23;100482.32;;;16.28;47.35
62592;BME280;48659;41.622;2.276;2023-03-25T08:15:51;100482.30;;;16.72;46.76
62592;BME280;48659;41.622;2.276;2023-03-25T08:18:20;100486.12;;;16.66;46.87
62592;BME280;48659;41.622;2.276;2023-03-25T08:20:48;100483.11;;;16.40;48.29
62592;BME280;48659;41.622;2.276;2023-03-25T08:23:20;100481.34;;;17.05;46.98
62592;BME280;48659;41.622;2.276;2023-03-25T08:25:49;100478.31;;;17.09;46.67
62592;BME280;48659;41.622;2.276;2023-03-25T08:28:18;100472.86;;;16.90;47.23
62592;BME280;48659;41.622;2.276;2023-03-25T08:30:46;100479.27;;;14.00;52.83
62592;BME280;48659;41.622;2.276;2023-03-25T08:33:14;100481.63;;;14.32;55.13
62592;BME280;48659;41.622;2.276;2023-03-25T08:35:41;100477.90;;;14.69;53.32
62592;BME280;48659;41.622;2.276;2023-03-25T08:38:09;100483.26;;;13.97;55.24
62592;BME280;48659;41.622;2.276;2023-03-25T08:40:36;100480.71;;;14.38;55.16
62592;BME280;48659;41.622;2.276;2023-03-25T08:43:05;100475.90;;;15.78;51.09
62592;BME280;48659;41.622;2.276;2023-03-25T08:45:33;100485.03;;;13.61;55.45
62592;BME280;48659;41.622;2.276;2023-03-25T08:48:01;100479.12;;;13.96;55.77
62592;BME280;48659;41.622;2.276;2023-03-25T08:50:29;100474.39;;;14.71;53.69
62592;BME280;48659;41.622;2.276;2023-03-25T08:52:57;100481.45;;;15.30;52.18
62592;BME280;48659;41.622;2.276;2023-03-25T08:55:25;100487.77;;;14.94;51.72
62592;BME280;48659;41.622;2.276;2023-03-25T08:57:52;100494.70;;;14.40;53.57
62592;BME280;48659;41.622;2.276;2023-03-25T09:00:23;100489.40;;;14.81;52.74
62592;BME280;48659;41.622;2.276;2023-03-25T09:02:50;100494.34;;;13.43;56.11
62592;BME280;48659;41.622;2.276;2023-03-25T09:05:18;100492.67;;;15.14;52.95
62592;BME280;48659;41.622;2.276;2023-03-25T09:07:46;100486.10;;;15.47;50.18
62592;BME280;48659;41.622;2.276;2023-03-25T09:10:14;100485.59;;;15.23;49.62
62592;BME280;48659;41.622;2.276;2023-03-25T09:12:41;100488.47;;;15.04;51.09
62592;BME280;48659;41.622;2.276;2023-03-25T09:15:09;100483.97;;;15.45;50.36
62592;BME280;48659;41.622;2.276;2023-03-25T09:17:38;100480.31;;;16.44;47.64
62592;BME280;48659;41.622;2.276;2023-03-25T09:20:07;100473.91;;;16.81;46.62
62592;BME280;48659;41.622;2.276;2023-03-25T09:22:34;100471.36;;;17.59;45.21
62592;BME280;48659;41.622;2.276;2023-03-25T09:25:02;100472.99;;;17.01;46.05
62592;BME280;48659;41.622;2.276;2023-03-25T09:27:30;100476.73;;;17.41;45.49
62592;BME280;48659;41.622;2.276;2023-03-25T09:29:57;100471.88;;;17.21;46.13
62592;BME280;48659;41.622;2.276;2023-03-25T09:32:25;100473.57;;;17.14;46.33
62592;BME280;48659;41.622;2.276;2023-03-25T09:34:52;100471.48;;;16.39;47.18
62592;BME280;48659;41.622;2.276;2023-03-25T09:37:20;100473.03;;;16.70;45.92
62592;BME280;48659;41.622;2.276;2023-03-25T09:39:47;100474.10;;;17.17;45.23
62592;BME280;48659;41.622;2.276;2023-03-25T09:42:34;100470.24;;;17.13;44.78
62592;BME280;48659;41.622;2.276;2023-03-25T09:45:16;100467.83;;;17.06;44.41
62592;BME280;48659;41.622;2.276;2023-03-25T09:47:54;100472.18;;;16.79;45.24
62592;BME280;48659;41.622;2.276;2023-03-25T09:50:22;100473.51;;;16.69;46.72
62592;BME280;48659;41.622;2.276;2023-03-25T09:52:55;100476.18;;;17.60;44.47
62592;BME280;48659;41.622;2.276;2023-03-25T09:55:26;100477.10;;;16.03;47.30
62592;BME280;48659;41.622;2.276;2023-03-25T09:58:01;100474.94;;;17.39;45.39
62592;BME280;48659;41.622;2.276;2023-03-25T10:00:30;100478.41;;;16.02;46.67
62592;BME280;48659;41.622;2.276;2023-03-25T10:03:08;100466.33;;;17.28;44.44
62592;BME280;48659;41.622;2.276;2023-03-25T10:05:47;100460.81;;;18.70;42.06
62592;BME280;48659;41.622;2.276;2023-03-25T10:08:24;100461.47;;;17.80;43.34
62592;BME280;48659;41.622;2.276;2023-03-25T10:11:00;100446.41;;;18.08;42.60
62592;BME280;48659;41.622;2.276;2023-03-25T10:13:37;100433.57;;;18.88;41.06
62592;BME280;48659;41.622;2.276;2023-03-25T10:16:12;100439.63;;;16.56;45.37
62592;BME280;48659;41.622;2.276;2023-03-25T10:18:51;100442.40;;;17.40;47.52
62592;BME280;48659;41.622;2.276;2023-03-25T10:21:27;100441.23;;;18.46;44.81
62592;BME280;48659;41.622;2.276;2023-03-25T10:24:09;100439.51;;;18.01;42.85
62592;BME280;48659;41.622;2.276;2023-03-25T10:26:43;100435.64;;;18.43;41.73
62592;BME280;48659;41.622;2.276;2023-03-25T10:29:14;100435.97;;;16.86;44.26
62592;BME280;48659;41.622;2.276;2023-03-25T10:31:50;100438.99;;;18.74;41.75
62592;BME280;48659;41.622;2.276;2023-03-25T10:34:30;100432.19;;;18.91;40.89
62592;BME280;48659;41.622;2.276;2023-03-25T10:37:02;100425.86;;;18.53;41.61
62592;BME280;48659;41.622;2.276;2023-03-25T10:39:32;100414.36;;;18.71;41.22
62592;BME280;48659;41.622;2.276;2023-03-25T10:42:03;100415.76;;;18.94;41.85
62592;BME280;48659;41.622;2.276;2023-03-25T10:44:39;100409.53;;;18.28;42.38
62592;BME280;48659;41.622;2.276;2023-03-25T10:47:09;100404.63;;;18.07;42.74
62592;BME280;48659;41.622;2.276;2023-03-25T10:49:39;100398.23;;;18.44;41.47
62592;BME280;48659;41.622;2.276;2023-03-25T10:52:07;100398.15;;;18.49;41.10
62592;BME280;48659;41.622;2.276;2023-03-25T10:54:36;100399.08;;;18.17;41.65
62592;BME280;48659;41.622;2.276;2023-03-25T10:57:08;100387.20;;;18.70;41.29
62592;BME280;48659;41.622;2.276;2023-03-25T10:59:40;100386.31;;;18.51;41.25
62592;BME280;48659;41.622;2.276;2023-03-25T11:02:14;100382.63;;;18.90;40.15
62592;BME280;48659;41.622;2.276;2023-03-25T11:05:02;100378.73;;;19.23;39.93
62592;BME280;48659;41.622;2.276;2023-03-25T11:07:33;100379.63;;;18.92;40.18
62592;BME280;48659;41.622;2.276;2023-03-25T11:10:16;100383.22;;;17.83;42.27
62592;BME280;48659;41.622;2.276;2023-03-25T11:12:44;100377.32;;;19.14;40.77
62592;BME280;48659;41.622;2.276;2023-03-25T11:15:14;100376.38;;;18.17;41.76
62592;BME280;48659;41.622;2.276;2023-03-25T11:17:43;100370.46;;;18.50;41.74
62592;BME280;48659;41.622;2.276;2023-03-25T11:20:34;100372.82;;;18.43;41.90
62592;BME280;48659;41.622;2.276;2023-03-25T11:23:05;100366.03;;;18.95;41.22
62592;BME280;48659;41.622;2.276;2023-03-25T11:25:37;100366.01;;;18.72;41.04
62592;BME280;48659;41.622;2.276;2023-03-25T11:28:12;100365.38;;;18.95;39.89
62592;BME280;48659;41.622;2.276;2023-03-25T11:31:16;100366.51;;;17.95;43.28
62592;BME280;48659;41.622;2.276;2023-03-25T11:33:45;100346.19;;;18.39;43.07
62592;BME280;48659;41.622;2.276;2023-03-25T11:36:22;100352.27;;;17.51;45.20
62592;BME280;48659;41.622;2.276;2023-03-25T11:38:55;100348.94;;;19.20;44.33
62592;BME280;48659;41.622;2.276;2023-03-25T11:41:27;100348.87;;;18.18;44.89
62592;BME280;48659;41.622;2.276;2023-03-25T11:43:57;100356.51;;;18.84;42.26
62592;BME280;48659;41.622;2.276;2023-03-25T11:46:25;100350.57;;;17.13;44.50
62592;BME280;48659;41.622;2.276;2023-03-25T11:48:53;100343.26;;;17.31;43.89
62592;BME280;48659;41.622;2.276;2023-03-25T11:51:26;100340.85;;;17.69;43.26
62592;BME280;48659;41.622;2.276;2023-03-25T11:53:57;100337.26;;;18.99;40.46
62592;BME280;48659;41.622;2.276;2023-03-25T11:56:31;100339.04;;;17.72;42.30
62592;BME280;48659;41.622;2.276;2023-03-25T11:59:00;100333.67;;;19.38;40.22
62592;BME280;48659;41.622;2.276;2023-03-25T12:01:35;100326.09;;;18.79;42.00
62592;BME280;48659;41.622;2.276;2023-03-25T12:04:11;100320.95;;;19.74;39.27
62592;BME280;48659;41.622;2.276;2023-03-25T12:06:54;100322.47;;;20.11;38.46
62592;BME280;48659;41.622;2.276;2023-03-25T12:09:22;100323.10;;;17.80;41.02
62592;BME280;48659;41.622;2.276;2023-03-25T12:12:00;100316.95;;;18.91;40.00
62592;BME280;48659;41.622;2.276;2023-03-25T12:14:43;100316.97;;;17.80;40.85
62592;BME280;48659;41.622;2.276;2023-03-25T12:17:25;100319.00;;;18.37;40.38
62592;BME280;48659;41.622;2.276;2023-03-25T12:20:04;100311.23;;;18.07;40.19
62592;BME280;48659;41.622;2.276;2023-03-25T12:22:50;100307.55;;;18.21;39.37
62592;BME280;48659;41.622;2.276;2023-03-25T12:25:28;100305.25;;;18.40;38.63
62592;BME280;48659;41.622;2.276;2023-03-25T12:28:06;100300.51;;;18.54;39.24
62592;BME280;48659;41.622;2.276;2023-03-25T12:30:46;100296.82;;;19.11;38.00
62592;BME280;48659;41.622;2.276;2023-03-25T12:33:25;100286.66;;;18.72;37.29
62592;BME280;48659;41.622;2.276;2023-03-25T12:36:07;100291.28;;;17.46;39.46
62592;BME280;48659;41.622;2.276;2023-03-25T12:38:44;100279.57;;;17.47;40.12
62592;BME280;48659;41.622;2.276;2023-03-25T12:41:20;100281.03;;;17.52;39.77
62592;BME280;48659;41.622;2.276;2023-03-25T12:43:58;100281.69;;;17.01;39.86
62592;BME280;48659;41.622;2.276;2023-03-25T12:46:39;100270.16;;;17.94;38.90
62592;BME280;48659;41.622;2.276;2023-03-25T12:49:22;100262.47;;;17.06;40.84
62592;BME280;48659;41.622;2.276;2023-03-25T12:52:01;100270.27;;;16.34;42.18
62592;BME280;48659;41.622;2.276;2023-03-25T12:54:43;100261.76;;;18.22;38.49
62592;BME280;48659;41.622;2.276;2023-03-25T12:57:33;100255.44;;;17.16;40.31
62592;BME280;48659;41.622;2.276;2023-03-25T13:00:44;100246.31;;;17.89;39.70
62592;BME280;48659;41.622;2.276;2023-03-25T13:03:27;100244.34;;;17.73;39.29
62592;BME280;48659;41.622;2.276;2023-03-25T13:06:01;100239.31;;;17.66;39.87
62592;BME280;48659;41.622;2.276;2023-03-25T13:08:35;100236.48;;;18.36;38.62
62592;BME280;48659;41.622;2.276;2023-03-25T13:11:09;100231.72;;;18.56;38.16
62592;BME280;48659;41.622;2.276;2023-03-25T13:13:40;100238.90;;;17.43;39.43
62592;BME280;48659;41.622;2.276;2023-03-25T13:16:13;100226.18;;;18.18;38.63